Time;durP1;ratioP1;P1;durP2;ratioP2;P2;SDS_P1;SDS_P2;PMS_P1;PMS_P2;Temp;Humidity;BMP_temperature;BMP_pressure;BME280_temperature;BME280_humidity;BME280_pressure;Samples;Min_cycle;Max_cycle;Signal;HPM_P1;HPM_P2
2023/09/06 00:01:17;;;;;;;682.00;512.33;;;;;;;;;;4984945;28;20485;-59
2023/09/06 00:03:44;;;;;;;658.53;497.73;;;;;;;;;;4984608;28;20085;-60
2023/09/06 00:06:11;;;;;;;689.35;509.42;;;;;;;;;;4983786;28;20046;-62
2023/09/06 00:08:38;;;;;;;662.20;499.00;;;;;;;;;;4975159;28;20142;-61
2023/09/06 00:11:05;;;;;;;674.63;512.10;;;;;;;;;;4985973;28;20066;-60
2023/09/06 00:13:32;;;;;;;662.58;507.10;;;;;;;;;;4956651;28;20046;-61
2023/09/06 00:16:00;;;;;;;663.97;503.30;;;;;;;;;;4974080;28;20051;-61
2023/09/06 00:18:29;;;;;;;671.45;507.58;;;;;;;;;;4966604;28;20117;-60
2023/09/06 00:20:57;;;;;;;658.17;497.48;;;;;;;;;;4969086;28;20049;-60
2023/09/06 00:23:27;;;;;;;667.83;499.45;;;;;;;;;;4984632;28;20105;-60
2023/09/06 00:25:54;;;;;;;658.10;496.50;;;;;;;;;;4963323;28;20210;-60
2023/09/06 00:28:20;;;;;;;670.30;508.85;;;;;;;;;;4983899;28;20043;-60
2023/09/06 00:30:47;;;;;;;667.33;504.58;;;;;;;;;;4978468;28;20397;-61
2023/09/06 00:33:14;;;;;;;698.80;513.28;;;;;;;;;;4982038;28;20109;-60
2023/09/06 00:35:40;;;;;;;666.28;503.40;;;;;;;;;;4983120;28;20051;-60
2023/09/06 00:38:08;;;;;;;666.55;499.58;;;;;;;;;;4986832;28;20042;-59
2023/09/06 00:40:39;;;;;;;659.00;491.33;;;;;;;;;;4984465;28;20078;-59
2023/09/06 00:43:07;;;;;;;667.97;494.77;;;;;;;;;;4983869;28;20127;-59
2023/09/06 00:45:39;;;;;;;665.78;485.98;;;;;;;;;;4983992;28;20054;-60
2023/09/06 00:48:07;;;;;;;676.92;498.50;;;;;;;;;;4972814;28;20117;-59
2023/09/06 00:50:35;;;;;;;662.60;483.38;;;;;;;;;;4983234;28;20045;-60
2023/09/06 00:53:05;;;;;;;658.95;484.20;;;;;;;;;;4980873;28;20046;-60
2023/09/06 00:55:33;;;;;;;656.78;485.27;;;;;;;;;;4984428;28;20125;-60
2023/09/06 00:58:00;;;;;;;670.55;487.45;;;;;;;;;;4978717;28;20092;-59
2023/09/06 01:00:27;;;;;;;669.33;489.77;;;;;;;;;;4966739;28;20042;-59
2023/09/06 01:02:54;;;;;;;664.42;484.45;;;;;;;;;;4982247;28;20055;-61
2023/09/06 01:05:22;;;;;;;664.28;491.75;;;;;;;;;;4973402;28;20049;-60
2023/09/06 01:08:03;;;;;;;675.40;507.17;;;;;;;;;;4962425;28;20074;-59
2023/09/06 01:10:33;;;;;;;670.22;506.90;;;;;;;;;;4980319;28;20043;-58
2023/09/06 01:13:02;;;;;;;658.92;474.30;;;;;;;;;;4964022;28;20039;-60
2023/09/06 01:15:31;;;;;;;660.90;472.20;;;;;;;;;;4962571;28;20133;-59
2023/09/06 01:17:58;;;;;;;664.13;489.70;;;;;;;;;;4966350;28;20078;-58
2023/09/06 01:20:38;;;;;;;657.78;478.50;;;;;;;;;;4974235;28;20074;-61
2023/09/06 01:23:23;;;;;;;675.47;491.88;;;;;;;;;;4982612;28;20073;-61
2023/09/06 01:25:50;;;;;;;657.60;471.00;;;;;;;;;;4965380;28;20084;-59
2023/09/06 01:28:17;;;;;;;670.35;482.75;;;;;;;;;;4965656;28;20038;-60
2023/09/06 01:30:44;;;;;;;657.22;471.67;;;;;;;;;;4973141;28;20125;-58
2023/09/06 01:33:10;;;;;;;691.97;483.77;;;;;;;;;;4965003;28;20054;-60
2023/09/06 01:39:24;;;;;;;663.08;462.70;;;;;;;;;;4985056;28;20098;-59
2023/09/06 01:41:51;;;;;;;656.55;470.00;;;;;;;;;;4974560;28;20050;-59
2023/09/06 01:44:18;;;;;;;654.70;471.27;;;;;;;;;;4973809;28;20046;-60
2023/09/06 01:46:45;;;;;;;676.53;476.27;;;;;;;;;;4978805;28;20140;-59
2023/09/06 01:49:12;;;;;;;660.58;470.00;;;;;;;;;;4973022;28;20050;-59
2023/09/06 01:51:39;;;;;;;668.88;466.48;;;;;;;;;;4973581;28;20124;-59
2023/09/06 01:54:07;;;;;;;695.95;484.92;;;;;;;;;;4973241;28;20435;-59
2023/09/06 01:56:33;;;;;;;658.05;463.83;;;;;;;;;;4984307;28;20035;-60
2023/09/06 01:59:00;;;;;;;654.90;462.95;;;;;;;;;;4973363;28;20499;-59
2023/09/06 02:01:27;;;;;;;683.55;456.35;;;;;;;;;;4808924;23;20149;-62
2023/09/06 02:03:54;;;;;;;673.38;462.80;;;;;;;;;;4926469;29;20055;-59
2023/09/06 02:06:21;;;;;;;684.15;467.63;;;;;;;;;;4942286;29;20062;-59
2023/09/06 02:08:49;;;;;;;675.60;457.60;;;;;;;;;;4943362;29;20091;-59
2023/09/06 02:11:17;;;;;;;677.75;467.55;;;;;;;;;;4943189;29;20055;-60
2023/09/06 02:13:46;;;;;;;676.97;465.60;;;;;;;;;;4939623;29;20558;-59
2023/09/06 02:16:12;;;;;;;682.15;464.05;;;;;;;;;;4944210;29;20066;-60
2023/09/06 02:18:40;;;;;;;682.33;464.67;;;;;;;;;;4923830;29;20561;-60
2023/09/06 02:21:07;;;;;;;715.88;477.73;;;;;;;;;;4924520;29;20434;-59
2023/09/06 02:23:35;;;;;;;680.67;478.63;;;;;;;;;;4944392;29;20414;-60
2023/09/06 02:26:02;;;;;;;668.20;453.55;;;;;;;;;;4912013;29;20055;-59
2023/09/06 02:28:29;;;;;;;673.72;451.45;;;;;;;;;;4926233;29;20420;-60
2023/09/06 02:30:56;;;;;;;663.60;446.60;;;;;;;;;;4923850;29;20055;-61
2023/09/06 02:33:25;;;;;;;690.08;466.10;;;;;;;;;;4941748;29;20446;-60
2023/09/06 02:35:51;;;;;;;670.80;453.13;;;;;;;;;;4943534;29;20513;-60
2023/09/06 02:38:18;;;;;;;665.60;452.95;;;;;;;;;;4922483;29;20063;-59
2023/09/06 02:40:45;;;;;;;665.08;456.55;;;;;;;;;;4930662;29;20059;-60
2023/09/06 02:43:13;;;;;;;674.90;454.35;;;;;;;;;;4945374;29;20430;-60
2023/09/06 02:45:40;;;;;;;676.65;446.27;;;;;;;;;;4929403;29;20071;-59
2023/09/06 02:48:12;;;;;;;713.35;455.60;;;;;;;;;;4937529;29;20070;-60
2023/09/06 02:50:40;;;;;;;671.97;456.98;;;;;;;;;;4928252;29;20055;-59
2023/09/06 02:53:19;;;;;;;677.03;447.35;;;;;;;;;;4930687;29;20513;-61
2023/09/06 02:55:48;;;;;;;684.35;449.45;;;;;;;;;;4934046;29;20379;-60
2023/09/06 02:58:18;;;;;;;711.30;458.15;;;;;;;;;;4914892;29;20470;-59
2023/09/06 03:00:49;;;;;;;694.80;447.80;;;;;;;;;;4944067;29;20059;-61
2023/09/06 03:03:16;;;;;;;698.65;453.25;;;;;;;;;;4927477;29;20060;-59
2023/09/06 03:05:43;;;;;;;671.70;434.58;;;;;;;;;;4930380;29;20087;-59
2023/09/06 03:08:14;;;;;;;676.20;447.33;;;;;;;;;;4925690;29;20493;-59
2023/09/06 03:10:44;;;;;;;765.50;442.90;;;;;;;;;;4929062;29;20131;-59
2023/09/06 03:13:15;;;;;;;719.38;451.40;;;;;;;;;;4925187;29;20079;-59
2023/09/06 03:15:43;;;;;;;686.03;430.38;;;;;;;;;;4929324;29;20055;-59
2023/09/06 03:18:11;;;;;;;722.88;445.23;;;;;;;;;;4927582;29;20055;-59
2023/09/06 03:20:44;;;;;;;688.65;449.05;;;;;;;;;;4925641;29;20055;-59
2023/09/06 03:23:19;;;;;;;666.78;419.42;;;;;;;;;;4937318;29;20049;-59
2023/09/06 03:25:54;;;;;;;670.80;435.80;;;;;;;;;;4943025;29;20517;-59
2023/09/06 03:28:27;;;;;;;662.53;424.55;;;;;;;;;;4930431;29;20134;-60
2023/09/06 03:30:58;;;;;;;662.70;426.05;;;;;;;;;;4918613;29;20064;-59
2023/09/06 03:33:27;;;;;;;679.67;450.90;;;;;;;;;;4927031;29;20054;-60
2023/09/06 03:35:54;;;;;;;682.60;429.42;;;;;;;;;;4930587;29;20048;-59
2023/09/06 03:38:25;;;;;;;687.05;427.02;;;;;;;;;;4940847;29;20494;-58
2023/09/06 03:40:53;;;;;;;676.10;434.92;;;;;;;;;;4942645;29;20056;-59
2023/09/06 03:43:19;;;;;;;673.63;435.95;;;;;;;;;;4923580;29;20058;-59
2023/09/06 03:45:54;;;;;;;664.17;439.23;;;;;;;;;;4946392;29;20075;-59
2023/09/06 03:48:23;;;;;;;681.13;443.45;;;;;;;;;;4924661;29;20058;-59
2023/09/06 03:50:57;;;;;;;671.97;441.58;;;;;;;;;;4928342;28;20548;-59
2023/09/06 03:53:27;;;;;;;666.08;432.33;;;;;;;;;;4942202;29;20506;-60
2023/09/06 03:55:57;;;;;;;665.25;430.02;;;;;;;;;;4908457;29;20063;-59
2023/09/06 03:58:34;;;;;;;664.72;435.17;;;;;;;;;;4942447;29;20111;-59
2023/09/06 04:01:03;;;;;;;672.55;430.52;;;;;;;;;;4927829;29;20063;-60
2023/09/06 04:03:34;;;;;;;672.80;423.13;;;;;;;;;;4927274;29;20044;-59
2023/09/06 04:06:03;;;;;;;754.88;445.13;;;;;;;;;;4928647;29;20047;-59
2023/09/06 04:08:32;;;;;;;695.05;433.70;;;;;;;;;;4925137;29;20082;-59
2023/09/06 04:11:00;;;;;;;679.85;432.02;;;;;;;;;;4933359;29;20054;-60
2023/09/06 04:13:28;;;;;;;673.78;437.25;;;;;;;;;;4931035;29;20056;-59
2023/09/06 04:15:56;;;;;;;683.30;444.63;;;;;;;;;;4929407;29;20062;-59
2023/09/06 04:18:27;;;;;;;681.22;446.13;;;;;;;;;;4929887;29;20143;-59
2023/09/06 04:20:54;;;;;;;675.85;455.27;;;;;;;;;;4927199;29;20592;-60
2023/09/06 04:23:20;;;;;;;685.13;449.88;;;;;;;;;;4933330;29;20138;-58
2023/09/06 04:25:52;;;;;;;671.38;442.73;;;;;;;;;;4925500;29;20055;-58
2023/09/06 04:28:25;;;;;;;672.35;453.35;;;;;;;;;;4930626;29;20055;-59
2023/09/06 04:30:54;;;;;;;687.08;447.35;;;;;;;;;;4925817;29;20066;-59
2023/09/06 04:33:24;;;;;;;677.22;445.45;;;;;;;;;;4929057;29;20516;-59
2023/09/06 04:36:00;;;;;;;706.58;451.50;;;;;;;;;;4929632;29;20055;-59
2023/09/06 04:38:27;;;;;;;688.38;454.10;;;;;;;;;;4927298;29;20571;-59
2023/09/06 04:41:08;;;;;;;667.30;447.67;;;;;;;;;;4926161;29;20055;-58
2023/09/06 04:43:43;;;;;;;674.95;454.90;;;;;;;;;;4923969;29;20048;-59
2023/09/06 04:46:09;;;;;;;668.58;461.27;;;;;;;;;;5001795;23;20059;-58
2023/09/06 04:48:43;;;;;;;687.95;460.02;;;;;;;;;;4943729;28;20043;-58
2023/09/06 04:51:09;;;;;;;719.42;481.55;;;;;;;;;;4947413;28;20417;-59
2023/09/06 04:53:36;;;;;;;684.08;472.35;;;;;;;;;;4963015;28;20055;-59
2023/09/06 04:56:03;;;;;;;680.20;486.98;;;;;;;;;;4943191;28;20134;-60
2023/09/06 04:58:56;;;;;;;681.40;519.50;;;;;;;;;;4959929;28;20096;-59
2023/09/06 05:01:22;;;;;;;712.30;557.47;;;;;;;;;;4930017;28;20055;-61
2023/09/06 05:03:50;;;;;;;709.08;595.58;;;;;;;;;;4966693;28;20051;-59
2023/09/06 05:06:17;;;;;;;732.80;615.05;;;;;;;;;;4963582;28;20067;-59
2023/09/06 05:08:45;;;;;;;710.50;627.50;;;;;;;;;;4945376;28;20061;-59
2023/09/06 05:11:21;;;;;;;752.67;651.75;;;;;;;;;;4947530;28;20059;-59
2023/09/06 05:13:49;;;;;;;713.22;625.58;;;;;;;;;;4963006;28;20067;-60
2023/09/06 05:16:17;;;;;;;759.53;631.22;;;;;;;;;;4931702;28;20561;-59
2023/09/06 05:18:44;;;;;;;723.30;619.47;;;;;;;;;;4930286;28;20114;-58
2023/09/06 05:21:17;;;;;;;709.45;615.80;;;;;;;;;;4931253;28;20150;-59
2023/09/06 05:23:44;;;;;;;693.33;610.30;;;;;;;;;;4963781;28;20047;-59
2023/09/06 05:26:11;;;;;;;708.88;621.30;;;;;;;;;;4962353;28;20456;-59
2023/09/06 05:28:42;;;;;;;742.38;609.15;;;;;;;;;;4951677;29;20130;-59
2023/09/06 05:31:09;;;;;;;706.63;609.72;;;;;;;;;;4926227;28;20058;-59
2023/09/06 05:33:38;;;;;;;876.35;620.70;;;;;;;;;;4934183;28;20083;-59
2023/09/06 05:36:08;;;;;;;769.35;618.22;;;;;;;;;;4963272;28;20055;-60
2023/09/06 05:38:35;;;;;;;712.50;621.05;;;;;;;;;;4960094;28;20600;-59
2023/09/06 05:41:03;;;;;;;712.45;628.05;;;;;;;;;;4946857;28;20058;-58
2023/09/06 05:43:39;;;;;;;730.00;643.63;;;;;;;;;;4922613;28;20055;-59
2023/09/06 05:46:06;;;;;;;735.80;652.63;;;;;;;;;;4939382;28;20161;-60
2023/09/06 05:48:54;;;;;;;737.00;658.35;;;;;;;;;;4961759;28;20051;-59
2023/09/06 05:51:23;;;;;;;746.25;665.28;;;;;;;;;;4930397;28;20046;-60
2023/09/06 05:53:50;;;;;;;748.63;669.25;;;;;;;;;;4921013;28;20162;-59
2023/09/06 05:56:16;;;;;;;739.80;661.05;;;;;;;;;;4943810;28;20065;-59
2023/09/06 05:58:43;;;;;;;788.60;672.45;;;;;;;;;;4925926;28;20146;-59
2023/09/06 06:01:12;;;;;;;758.67;677.38;;;;;;;;;;4943386;28;20466;-59
2023/09/06 06:03:39;;;;;;;757.67;677.10;;;;;;;;;;4947043;28;20401;-58
2023/09/06 06:06:10;;;;;;;849.85;695.55;;;;;;;;;;4962873;28;20190;-59
2023/09/06 06:08:37;;;;;;;817.13;734.97;;;;;;;;;;4924021;29;20146;-59
2023/09/06 06:11:04;;;;;;;857.90;766.13;;;;;;;;;;4962794;28;20489;-60
2023/09/06 06:13:32;;;;;;;903.45;816.83;;;;;;;;;;4959844;28;20382;-59
2023/09/06 06:15:58;;;;;;;956.63;861.47;;;;;;;;;;4966038;28;20073;-60
2023/09/06 06:18:26;;;;;;;995.92;903.30;;;;;;;;;;4965172;28;20058;-59
2023/09/06 06:20:54;;;;;;;1025.97;935.20;;;;;;;;;;4968118;28;20086;-59
2023/09/06 06:23:21;;;;;;;1054.38;961.05;;;;;;;;;;4949805;28;20414;-59
2023/09/06 06:25:48;;;;;;;1070.55;976.00;;;;;;;;;;4964797;28;20054;-59
2023/09/06 06:28:15;;;;;;;1094.25;997.78;;;;;;;;;;4968189;28;20513;-59
2023/09/06 06:30:42;;;;;;;1101.35;999.55;;;;;;;;;;4960944;28;20449;-59
2023/09/06 06:33:09;;;;;;;1127.07;999.90;;;;;;;;;;4933903;28;20055;-60
2023/09/06 06:35:36;;;;;;;1133.53;999.90;;;;;;;;;;4967912;28;20082;-59
2023/09/06 06:38:03;;;;;;;1146.15;999.90;;;;;;;;;;4961222;28;20493;-59
2023/09/06 06:40:30;;;;;;;1154.03;999.90;;;;;;;;;;4966276;28;20046;-59
2023/09/06 06:42:56;;;;;;;1152.32;999.90;;;;;;;;;;4966226;28;20051;-60
2023/09/06 06:45:23;;;;;;;1160.72;999.90;;;;;;;;;;4949272;28;20432;-59
2023/09/06 06:47:49;;;;;;;1150.18;999.90;;;;;;;;;;4966796;28;20525;-59
2023/09/06 06:50:16;;;;;;;1151.63;999.90;;;;;;;;;;4946534;28;20063;-60
2023/09/06 06:52:46;;;;;;;1162.88;999.90;;;;;;;;;;4966712;28;20055;-59
2023/09/06 06:55:12;;;;;;;1160.15;999.90;;;;;;;;;;4965038;28;20049;-59
2023/09/06 06:57:39;;;;;;;1166.55;999.90;;;;;;;;;;4967631;28;20055;-59
2023/09/06 07:00:11;;;;;;;1171.30;999.90;;;;;;;;;;4965635;28;20448;-61
2023/09/06 07:02:38;;;;;;;1177.97;999.90;;;;;;;;;;4964934;28;20085;-57
2023/09/06 07:05:04;;;;;;;1182.28;999.90;;;;;;;;;;4967545;28;20476;-60
2023/09/06 07:07:31;;;;;;;1185.20;999.90;;;;;;;;;;4963307;28;20506;-61
2023/09/06 07:09:58;;;;;;;1177.60;999.90;;;;;;;;;;4950261;28;20134;-59
2023/09/06 07:12:24;;;;;;;1186.18;999.90;;;;;;;;;;4966654;28;23647;-59
2023/09/06 07:14:51;;;;;;;1188.55;999.90;;;;;;;;;;4964902;28;20798;-57
2023/09/06 07:17:18;;;;;;;1188.13;999.90;;;;;;;;;;4965257;28;20416;-58
2023/09/06 07:19:45;;;;;;;1189.38;999.90;;;;;;;;;;4965497;28;20544;-60
2023/09/06 07:22:12;;;;;;;1184.10;999.90;;;;;;;;;;4947775;28;20446;-60
2023/09/06 07:24:38;;;;;;;1193.13;999.90;;;;;;;;;;4965179;28;20501;-60
2023/09/06 07:27:05;;;;;;;1197.72;999.90;;;;;;;;;;4964647;28;20062;-61
2023/09/06 07:29:32;;;;;;;1201.30;999.90;;;;;;;;;;4965561;28;20068;-60
2023/09/06 07:31:58;;;;;;;1185.45;999.90;;;;;;;;;;4965932;28;20524;-59
2023/09/06 07:34:25;;;;;;;1165.75;999.90;;;;;;;;;;4967369;28;20492;-59
2023/09/06 07:36:52;;;;;;;1160.88;999.90;;;;;;;;;;4948112;28;20653;-59
2023/09/06 07:39:20;;;;;;;1163.25;999.90;;;;;;;;;;4965159;28;20730;-59
2023/09/06 07:41:50;;;;;;;1137.00;999.90;;;;;;;;;;4947158;28;20051;-59
2023/09/06 07:44:17;;;;;;;1125.45;999.90;;;;;;;;;;4966138;28;20198;-59
2023/09/06 07:46:48;;;;;;;1118.88;999.90;;;;;;;;;;4963113;28;20509;-59
2023/09/06 07:49:16;;;;;;;1108.68;999.90;;;;;;;;;;4948021;28;20593;-59
2023/09/06 07:51:43;;;;;;;1092.82;996.63;;;;;;;;;;4948297;28;20122;-59
2023/09/06 07:54:10;;;;;;;1089.25;991.33;;;;;;;;;;4964930;28;20117;-59
2023/09/06 07:56:37;;;;;;;1082.70;988.17;;;;;;;;;;4965755;28;20074;-59
2023/09/06 07:59:05;;;;;;;1069.70;977.25;;;;;;;;;;4965149;28;20051;-59
2023/09/06 08:01:32;;;;;;;1071.18;978.80;;;;;;;;;;4948584;28;20098;-61
2023/09/06 08:03:59;;;;;;;1086.40;967.72;;;;;;;;;;4946387;28;20509;-58
2023/09/06 08:06:26;;;;;;;1068.25;975.08;;;;;;;;;;4949187;28;20535;-57
2023/09/06 08:08:53;;;;;;;1055.80;962.72;;;;;;;;;;4963859;28;20043;-58
2023/09/06 08:11:20;;;;;;;1053.15;961.00;;;;;;;;;;4964843;28;20051;-58
2023/09/06 08:13:46;;;;;;;1040.22;949.28;;;;;;;;;;4965342;28;20047;-58
2023/09/06 08:16:13;;;;;;;1049.65;958.25;;;;;;;;;;4965228;28;20461;-58
2023/09/06 08:18:40;;;;;;;1039.80;947.95;;;;;;;;;;4962009;28;20502;-59
2023/09/06 08:21:07;;;;;;;1051.30;956.78;;;;;;;;;;4963976;28;20060;-59
2023/09/06 08:23:34;;;;;;;1042.45;951.13;;;;;;;;;;4943256;29;20501;-61
2023/09/06 08:26:01;;;;;;;1039.93;948.30;;;;;;;;;;4965254;28;20063;-59
2023/09/06 08:28:27;;;;;;;1034.45;943.88;;;;;;;;;;4963929;28;20077;-58
2023/09/06 08:30:54;;;;;;;1032.97;942.80;;;;;;;;;;4965106;28;20058;-58
2023/09/06 08:33:21;;;;;;;1034.47;943.25;;;;;;;;;;4964690;28;20061;-58
2023/09/06 08:35:48;;;;;;;1035.18;944.35;;;;;;;;;;4931652;28;20056;-59
2023/09/06 08:38:14;;;;;;;1036.97;947.10;;;;;;;;;;4965151;28;20063;-58
2023/09/06 08:40:41;;;;;;;1033.53;942.28;;;;;;;;;;4940200;29;20082;-58
2023/09/06 08:43:11;;;;;;;1035.20;944.10;;;;;;;;;;4944959;28;20055;-58
2023/09/06 08:45:41;;;;;;;1042.03;950.25;;;;;;;;;;4962426;28;20061;-57
2023/09/06 08:48:08;;;;;;;1038.88;944.25;;;;;;;;;;4963284;28;20042;-58
2023/09/06 08:50:35;;;;;;;1032.03;941.95;;;;;;;;;;4964847;28;20141;-58
2023/09/06 08:53:03;;;;;;;1038.35;947.92;;;;;;;;;;4963401;28;20122;-58
2023/09/06 08:55:30;;;;;;;1036.75;946.35;;;;;;;;;;4964766;28;20078;-57
2023/09/06 09:08:52;;;;;;;1030.50;940.50;;;;;;;;;;4947262;28;20110;-57
2023/09/06 09:11:19;;;;;;;1033.43;942.40;;;;;;;;;;4942424;29;20420;-58
2023/09/06 09:13:45;;;;;;;1045.40;954.85;;;;;;;;;;4944945;28;20047;-58
2023/09/06 09:16:13;;;;;;;1045.65;946.60;;;;;;;;;;4944610;28;20054;-58
2023/09/06 09:18:41;;;;;;;1050.47;959.17;;;;;;;;;;4938538;28;20099;-58
2023/09/06 09:21:09;;;;;;;1044.90;951.35;;;;;;;;;;4943729;28;20094;-58
2023/09/06 09:23:55;;;;;;;1054.13;963.53;;;;;;;;;;4943162;29;20517;-57
2023/09/06 09:26:22;;;;;;;1039.22;949.15;;;;;;;;;;4945295;28;20114;-58
2023/09/06 09:28:49;;;;;;;1058.40;966.00;;;;;;;;;;4940416;28;20052;-58
2023/09/06 09:31:16;;;;;;;1050.38;958.92;;;;;;;;;;4945702;28;20062;-58
2023/09/06 09:33:45;;;;;;;1048.53;957.25;;;;;;;;;;4940316;28;20052;-57
2023/09/06 09:36:13;;;;;;;1072.60;975.80;;;;;;;;;;4945496;28;20061;-58
2023/09/06 09:38:41;;;;;;;1048.97;958.42;;;;;;;;;;4944321;29;20130;-58
2023/09/06 09:41:08;;;;;;;1051.18;960.20;;;;;;;;;;4943727;28;20429;-60
2023/09/06 09:43:35;;;;;;;1049.30;957.67;;;;;;;;;;4945269;28;20062;-58
2023/09/06 09:46:02;;;;;;;1058.05;967.10;;;;;;;;;;4945514;28;20571;-58
2023/09/06 09:48:30;;;;;;;1055.13;963.78;;;;;;;;;;4944197;28;20051;-58
2023/09/06 09:50:57;;;;;;;1044.50;954.90;;;;;;;;;;4942411;29;20119;-58
2023/09/06 09:53:25;;;;;;;1063.25;971.40;;;;;;;;;;4942811;28;20083;-58
2023/09/06 09:55:53;;;;;;;1067.80;976.30;;;;;;;;;;4942684;28;20414;-58
2023/09/06 09:58:20;;;;;;;1058.90;966.05;;;;;;;;;;4943780;28;20055;-58
2023/09/06 10:00:49;;;;;;;1061.53;969.40;;;;;;;;;;4942993;28;20430;-59
2023/09/06 10:03:18;;;;;;;1076.68;978.22;;;;;;;;;;4944729;28;20122;-58
2023/09/06 10:05:50;;;;;;;1061.38;970.13;;;;;;;;;;4935635;29;20051;-58
2023/09/06 10:08:17;;;;;;;1056.28;965.53;;;;;;;;;;4944958;28;20084;-58
2023/09/06 10:10:45;;;;;;;1067.57;968.25;;;;;;;;;;4941004;28;20062;-58
2023/09/06 10:13:13;;;;;;;1076.13;984.30;;;;;;;;;;4927605;29;20047;-59
2023/09/06 10:15:42;;;;;;;1085.25;991.05;;;;;;;;;;4942271;28;20043;-58
2023/09/06 10:18:10;;;;;;;1076.03;979.55;;;;;;;;;;4941391;28;20059;-58
2023/09/06 10:20:39;;;;;;;1068.43;976.78;;;;;;;;;;4947192;28;20075;-59
2023/09/06 10:23:06;;;;;;;1070.03;976.30;;;;;;;;;;4935299;29;20509;-58
2023/09/06 10:25:40;;;;;;;1065.60;973.97;;;;;;;;;;4943751;28;20071;-58
2023/09/06 10:28:07;;;;;;;1066.05;973.83;;;;;;;;;;4946019;28;20288;-58
2023/09/06 10:30:44;;;;;;;1073.00;980.33;;;;;;;;;;4944823;28;20130;-59
2023/09/06 10:33:32;;;;;;;1091.20;994.15;;;;;;;;;;4944955;28;20114;-58
2023/09/06 10:36:03;;;;;;;1068.45;976.58;;;;;;;;;;4944610;28;20047;-59
2023/09/06 10:38:30;;;;;;;1070.75;978.58;;;;;;;;;;4944172;29;20059;-59
2023/09/06 10:40:57;;;;;;;1063.28;972.20;;;;;;;;;;4941589;28;20059;-58
2023/09/06 10:43:28;;;;;;;1083.55;990.70;;;;;;;;;;4948293;28;20494;-58
2023/09/06 10:45:55;;;;;;;1076.95;984.30;;;;;;;;;;4941178;28;20499;-58
2023/09/06 10:48:25;;;;;;;1081.10;985.47;;;;;;;;;;4943116;28;20560;-58
2023/09/06 10:51:06;;;;;;;1085.90;993.22;;;;;;;;;;4943865;28;20052;-58
2023/09/06 10:53:36;;;;;;;1088.88;995.47;;;;;;;;;;4941654;29;20060;-58
2023/09/06 10:56:03;;;;;;;1092.97;996.67;;;;;;;;;;4944505;28;20103;-58
2023/09/06 10:58:32;;;;;;;1088.25;994.67;;;;;;;;;;4944349;29;20047;-58
2023/09/06 11:01:09;;;;;;;1084.65;987.30;;;;;;;;;;4945826;28;20055;-58
2023/09/06 11:03:36;;;;;;;1091.18;987.13;;;;;;;;;;4946950;28;20044;-58
2023/09/06 11:06:04;;;;;;;1077.15;981.85;;;;;;;;;;4946285;28;20141;-61
2023/09/06 11:08:32;;;;;;;1089.68;996.40;;;;;;;;;;4950892;28;20051;-58
2023/09/06 11:10:59;;;;;;;1091.10;997.17;;;;;;;;;;4945643;28;20556;-58
2023/09/06 11:13:29;;;;;;;1086.13;993.42;;;;;;;;;;4951136;28;20055;-59
2023/09/06 11:15:55;;;;;;;1080.00;987.33;;;;;;;;;;4944744;29;20115;-59
2023/09/06 11:18:22;;;;;;;1085.82;991.47;;;;;;;;;;4946535;28;20091;-61
2023/09/06 11:20:49;;;;;;;1087.95;994.35;;;;;;;;;;4948906;29;20107;-58
2023/09/06 11:23:16;;;;;;;1081.40;989.50;;;;;;;;;;4946284;28;20059;-59
2023/09/06 11:25:43;;;;;;;1080.15;987.28;;;;;;;;;;4950406;28;20058;-58
2023/09/06 11:28:17;;;;;;;1089.35;995.42;;;;;;;;;;4946041;28;20062;-58
2023/09/06 11:30:47;;;;;;;1093.85;997.92;;;;;;;;;;4935876;29;20051;-58
2023/09/06 11:33:16;;;;;;;1095.38;998.70;;;;;;;;;;4947756;28;20126;-57
2023/09/06 11:35:46;;;;;;;1100.95;986.47;;;;;;;;;;4936595;29;20192;-57
2023/09/06 11:38:16;;;;;;;1090.88;997.03;;;;;;;;;;4949195;28;20055;-57
2023/09/06 11:40:43;;;;;;;1080.82;988.20;;;;;;;;;;4934926;29;20498;-58
2023/09/06 11:43:13;;;;;;;1090.50;995.83;;;;;;;;;;4952935;28;20449;-58
2023/09/06 11:45:43;;;;;;;1092.57;997.85;;;;;;;;;;4943030;28;20059;-57
2023/09/06 11:48:10;;;;;;;1251.03;990.85;;;;;;;;;;4941772;28;20138;-59
2023/09/06 11:50:42;;;;;;;1086.68;993.45;;;;;;;;;;4949503;29;20051;-58
2023/09/06 11:53:09;;;;;;;1095.13;999.00;;;;;;;;;;4942629;28;20505;-58
2023/09/06 11:55:45;;;;;;;1091.75;997.33;;;;;;;;;;4932162;29;20473;-58
2023/09/06 11:58:20;;;;;;;1097.18;999.08;;;;;;;;;;4945657;28;20054;-58
2023/09/06 12:00:50;;;;;;;1088.97;994.60;;;;;;;;;;4935355;29;20059;-59
2023/09/06 12:03:20;;;;;;;1102.13;999.85;;;;;;;;;;4947342;28;20051;-61
2023/09/06 12:05:48;;;;;;;1101.20;999.90;;;;;;;;;;4946933;29;20075;-59
2023/09/06 12:08:20;;;;;;;1109.00;999.90;;;;;;;;;;4948324;29;20055;-58
2023/09/06 12:10:50;;;;;;;1103.18;999.90;;;;;;;;;;4944790;28;20089;-58
2023/09/06 12:13:17;;;;;;;1102.97;999.90;;;;;;;;;;4948876;28;20052;-58
2023/09/06 12:15:44;;;;;;;1104.60;999.90;;;;;;;;;;4947547;28;20074;-58
2023/09/06 12:18:12;;;;;;;1106.80;999.90;;;;;;;;;;4943770;28;20079;-59
2023/09/06 12:20:38;;;;;;;1103.00;999.90;;;;;;;;;;4931448;29;20730;-58
2023/09/06 12:23:05;;;;;;;1102.20;999.75;;;;;;;;;;4948691;28;20102;-58
2023/09/06 12:25:32;;;;;;;1091.15;997.63;;;;;;;;;;4947747;28;20059;-59
2023/09/06 12:27:58;;;;;;;1107.60;999.90;;;;;;;;;;4946062;28;20051;-59
2023/09/06 12:30:25;;;;;;;1100.97;999.90;;;;;;;;;;4943099;29;20047;-58
2023/09/06 12:32:52;;;;;;;1106.35;999.90;;;;;;;;;;4929638;29;20059;-58
2023/09/06 12:35:19;;;;;;;1098.75;999.10;;;;;;;;;;4948979;29;20055;-60
2023/09/06 12:37:45;;;;;;;1097.63;999.35;;;;;;;;;;4948271;28;20047;-58
2023/09/06 12:40:15;;;;;;;1096.70;999.53;;;;;;;;;;4946325;28;20055;-58
2023/09/06 12:42:43;;;;;;;1095.30;999.03;;;;;;;;;;4942463;28;20062;-58
2023/09/06 12:45:24;;;;;;;1116.68;999.90;;;;;;;;;;4947154;28;20146;-58
2023/09/06 12:47:51;;;;;;;1101.80;999.28;;;;;;;;;;4936731;29;20056;-58
2023/09/06 12:50:17;;;;;;;1104.82;999.90;;;;;;;;;;4948764;28;20061;-59
2023/09/06 12:52:44;;;;;;;1102.32;999.90;;;;;;;;;;4943642;28;20143;-59
2023/09/06 12:55:11;;;;;;;1099.32;999.30;;;;;;;;;;4948843;28;20073;-59
2023/09/06 12:57:37;;;;;;;1100.10;999.72;;;;;;;;;;4946453;28;20052;-59
2023/09/06 13:00:07;;;;;;;1097.95;999.17;;;;;;;;;;4944445;28;20111;-60
2023/09/06 13:02:34;;;;;;;1098.25;999.50;;;;;;;;;;4943691;29;20402;-59
2023/09/06 13:05:01;;;;;;;1105.95;999.75;;;;;;;;;;4945663;28;20065;-59
2023/09/06 13:17:01;;;;;;;1091.85;997.90;;;;;;;;;;515537;26;20328;-61
2023/09/06 13:19:28;;;;;;;1095.90;999.38;;;;;;;;;;4967306;28;20050;-59
2023/09/06 13:21:54;;;;;;;1104.43;999.90;;;;;;;;;;4985265;28;20561;-59
2023/09/06 13:24:21;;;;;;;1118.50;999.90;;;;;;;;;;4983194;28;20105;-57
2023/09/06 13:26:49;;;;;;;1107.18;999.90;;;;;;;;;;4984650;28;20050;-59
2023/09/06 13:29:19;;;;;;;1100.28;998.72;;;;;;;;;;4963741;28;20132;-58
2023/09/06 13:31:46;;;;;;;1097.45;999.20;;;;;;;;;;4982423;28;20393;-58
2023/09/06 13:34:12;;;;;;;1098.68;993.90;;;;;;;;;;4974104;28;20047;-60
2023/09/06 13:36:39;;;;;;;1095.22;997.90;;;;;;;;;;4983858;28;20059;-58
2023/09/06 13:39:07;;;;;;;1097.43;998.25;;;;;;;;;;4957358;28;20413;-59
2023/09/06 13:41:34;;;;;;;1102.25;999.90;;;;;;;;;;4980532;28;20109;-58
2023/09/06 13:44:00;;;;;;;1098.18;998.25;;;;;;;;;;4977613;28;20046;-59
2023/09/06 13:46:27;;;;;;;1105.88;999.90;;;;;;;;;;4981589;28;20098;-58
2023/09/06 13:48:54;;;;;;;1109.15;999.90;;;;;;;;;;4985662;28;20065;-58
2023/09/06 13:51:21;;;;;;;1105.18;999.90;;;;;;;;;;4982585;28;20046;-58
2023/09/06 13:53:48;;;;;;;1092.57;996.83;;;;;;;;;;4985098;28;20118;-58
2023/09/06 13:56:16;;;;;;;1097.55;996.60;;;;;;;;;;4985629;28;20487;-58
2023/09/06 13:58:43;;;;;;;1098.47;999.58;;;;;;;;;;4979258;28;20082;-58
2023/09/06 14:01:10;;;;;;;1095.85;998.47;;;;;;;;;;4964845;28;20050;-58
2023/09/06 14:03:37;;;;;;;1098.03;999.35;;;;;;;;;;4983486;28;20050;-58
2023/09/06 14:06:04;;;;;;;1097.50;999.00;;;;;;;;;;4982029;28;20051;-59
2023/09/06 14:08:32;;;;;;;1100.35;999.60;;;;;;;;;;4985908;28;20061;-59
2023/09/06 14:10:58;;;;;;;1097.50;999.20;;;;;;;;;;4982173;28;20086;-58
2023/09/06 14:13:26;;;;;;;1097.82;999.58;;;;;;;;;;4985449;28;20134;-60
2023/09/06 14:15:53;;;;;;;1097.68;999.00;;;;;;;;;;4982484;28;20401;-58
2023/09/06 14:18:20;;;;;;;1109.15;995.47;;;;;;;;;;4983578;28;20137;-59